Time;durP1;ratioP1;P1;durP2;ratioP2;P2;SDS_P1;SDS_P2;PMS_P1;PMS_P2;Temp;Humidity;BMP_temperature;BMP_pressure;BME280_temperature;BME280_humidity;BME280_pressure;Samples;Min_cycle;Max_cycle;Signal;HPM_P1;HPM_P2
2022/09/19 00:00:28;;;;;;;4.43;1.40;;;11.60;99.90;;;;;;5058149;28;20490;-82
2022/09/19 00:03:03;;;;;;;2.60;1.43;;;11.60;99.90;;;;;;5059565;28;20460;-82
2022/09/19 00:05:39;;;;;;;3.70;1.23;;;11.60;99.90;;;;;;5060336;28;20451;-81
2022/09/19 00:08:10;;;;;;;4.70;1.73;;;11.60;99.90;;;;;;5062676;28;20464;-83
2022/09/19 00:10:42;;;;;;;2.43;1.43;;;11.60;99.90;;;;;;5058686;28;20500;-82
2022/09/19 00:13:09;;;;;;;6.57;1.67;;;11.60;99.90;;;;;;5059866;28;20452;-81
2022/09/19 00:15:36;;;;;;;5.90;1.30;;;11.60;99.90;;;;;;5059305;28;20476;-83
2022/09/19 00:18:04;;;;;;;5.83;1.67;;;11.60;99.90;;;;;;5059749;28;20455;-82
2022/09/19 00:20:38;;;;;;;2.93;1.43;;;11.60;99.90;;;;;;5068465;28;20484;-80
2022/09/19 00:26:03;;;;;;;3.03;1.77;;;11.60;99.90;;;;;;5060726;28;20855;-82
2022/09/19 00:28:30;;;;;;;3.70;1.40;;;11.60;99.90;;;;;;5053599;28;20500;-82
2022/09/19 00:30:57;;;;;;;4.77;1.40;;;11.70;99.90;;;;;;5057921;28;20490;-83
2022/09/19 00:33:30;;;;;;;4.40;1.63;;;11.70;99.90;;;;;;5061938;28;20455;-83
2022/09/19 00:35:59;;;;;;;3.70;1.67;;;11.70;99.90;;;;;;5075610;28;20456;-80
2022/09/19 00:38:29;;;;;;;6.83;1.60;;;11.70;99.90;;;;;;5074589;28;20455;-83
2022/09/19 00:40:58;;;;;;;2.53;1.40;;;11.70;99.90;;;;;;5067778;28;20483;-82
2022/09/19 00:43:43;;;;;;;1.87;1.53;;;11.70;99.90;;;;;;5048742;28;20453;-82
2022/09/19 00:46:10;;;;;;;3.87;1.17;;;11.60;99.90;;;;;;5055803;28;20449;-83
2022/09/19 00:48:41;;;;;;;4.53;2.00;;;11.70;99.90;;;;;;5049410;28;20480;-82
2022/09/19 00:51:15;;;;;;;2.93;1.20;;;11.70;99.90;;;;;;5051761;28;21033;-82
2022/09/19 00:53:42;;;;;;;2.50;0.97;;;11.70;99.90;;;;;;5056398;28;20498;-82
2022/09/19 00:56:09;;;;;;;3.10;1.67;;;11.70;99.90;;;;;;5056983;28;20441;-82
2022/09/19 00:58:44;;;;;;;4.40;1.50;;;11.70;99.90;;;;;;5057603;28;20476;-82
2022/09/19 01:01:13;;;;;;;11.63;2.00;;;11.70;99.90;;;;;;5052903;28;20541;-82
2022/09/19 01:03:41;;;;;;;6.13;1.70;;;11.70;99.90;;;;;;5057657;28;20560;-82
2022/09/19 01:06:10;;;;;;;5.53;1.60;;;11.70;99.90;;;;;;5057242;28;20543;-82
2022/09/19 01:08:40;;;;;;;3.40;1.57;;;11.70;99.90;;;;;;5057430;28;20476;-81
2022/09/19 01:11:32;;;;;;;4.20;1.30;;;11.70;99.90;;;;;;5069472;28;20506;-80
2022/09/19 01:14:11;;;;;;;2.63;1.60;;;11.70;99.90;;;;;;5057365;28;20452;-83
2022/09/19 01:16:44;;;;;;;5.57;4.20;;;11.70;99.90;;;;;;5047787;28;20511;-83
2022/09/19 01:19:42;;;;;;;3.60;2.10;;;11.80;99.90;;;;;;5059581;28;20453;-80
2022/09/19 01:22:23;;;;;;;4.27;1.70;;;11.80;99.90;;;;;;5069955;28;20472;-81
2022/09/19 01:24:50;;;;;;;3.23;1.93;;;11.80;99.90;;;;;;5067873;28;20518;-80
2022/09/19 01:27:49;;;;;;;5.33;1.63;;;11.80;99.90;;;;;;5083269;28;20451;-80
2022/09/19 01:30:16;;;;;;;4.70;1.93;;;11.80;99.90;;;;;;5067353;28;20498;-81
2022/09/19 01:32:51;;;;;;;5.40;2.17;;;11.80;99.90;;;;;;5053687;28;20995;-80
2022/09/19 01:35:28;;;;;;;4.93;1.90;;;11.80;99.90;;;;;;5049744;28;20483;-83
2022/09/19 01:38:07;;;;;;;11.10;2.40;;;11.80;99.90;;;;;;5056023;28;20436;-82
2022/09/19 01:40:35;;;;;;;7.00;2.67;;;11.80;99.90;;;;;;5056025;28;20522;-82
2022/09/19 01:43:05;;;;;;;10.53;2.57;;;11.70;99.90;;;;;;5055981;28;20464;-82
2022/09/19 01:45:38;;;;;;;3.40;1.60;;;11.80;99.90;;;;;;5066608;28;20464;-81
2022/09/19 01:48:26;;;;;;;5.03;1.73;;;11.70;99.90;;;;;;5051541;28;20478;-82
2022/09/19 01:51:07;;;;;;;5.07;2.90;;;11.80;99.90;;;;;;5067391;28;20488;-80
2022/09/19 01:53:59;;;;;;;3.10;1.43;;;11.70;99.90;;;;;;5061183;28;20459;-83
2022/09/19 01:56:36;;;;;;;5.23;1.50;;;11.70;99.90;;;;;;5078072;28;20437;-81
2022/09/19 01:59:28;;;;;;;7.70;2.10;;;11.70;99.90;;;;;;5065357;28;20453;-81
2022/09/19 02:02:22;;;;;;;3.07;1.93;;;11.70;99.90;;;;;;5061991;28;20453;-82
2022/09/19 02:05:21;;;;;;;6.20;1.87;;;11.70;99.90;;;;;;5052008;28;20447;-81
2022/09/19 02:08:00;;;;;;;6.20;1.80;;;11.70;99.90;;;;;;5038158;28;20522;-83
2022/09/19 02:10:42;;;;;;;7.43;3.87;;;11.70;99.90;;;;;;5073897;28;20507;-82
2022/09/19 02:13:10;;;;;;;11.90;2.10;;;11.70;99.90;;;;;;5058172;28;20445;-83
2022/09/19 02:15:41;;;;;;;6.90;1.70;;;11.70;99.90;;;;;;5073487;28;20452;-82
2022/09/19 02:18:20;;;;;;;7.13;2.30;;;11.70;99.90;;;;;;5052016;28;20539;-82
2022/09/19 02:20:48;;;;;;;11.30;2.10;;;11.60;99.90;;;;;;5057652;28;20498;-81
2022/09/19 02:23:20;;;;;;;4.13;1.90;;;11.60;99.90;;;;;;5058041;28;20456;-82
2022/09/19 02:25:49;;;;;;;4.63;1.70;;;11.70;99.90;;;;;;5060289;28;20470;-82
2022/09/19 02:28:21;;;;;;;5.23;2.10;;;11.70;99.90;;;;;;5056235;28;20441;-83
2022/09/19 02:30:49;;;;;;;6.23;1.67;;;11.70;99.90;;;;;;5057184;28;20491;-83
2022/09/19 02:33:17;;;;;;;2.73;1.70;;;11.70;99.90;;;;;;5051646;28;20452;-82
2022/09/19 02:35:51;;;;;;;4.70;2.17;;;11.70;99.90;;;;;;5056086;28;20934;-81
2022/09/19 02:38:34;;;;;;;6.90;3.03;;;11.70;99.90;;;;;;5054584;28;20885;-81
2022/09/19 02:41:06;;;;;;;5.67;1.80;;;11.60;99.90;;;;;;5042895;28;20472;-83
2022/09/19 02:43:48;;;;;;;4.77;1.70;;;11.60;99.90;;;;;;5054665;28;20516;-83
2022/09/19 02:46:32;;;;;;;3.23;1.40;;;11.60;99.90;;;;;;5052525;28;20455;-82
2022/09/19 02:49:52;;;;;;;5.43;1.60;;;11.60;99.90;;;;;;5068701;28;20536;-83
2022/09/19 02:52:47;;;;;;;4.63;1.87;;;11.60;99.90;;;;;;5035358;28;20496;-83
2022/09/19 02:55:18;;;;;;;2.97;1.40;;;11.70;99.90;;;;;;5053189;28;21228;-82
2022/09/19 02:57:48;;;;;;;6.47;1.80;;;11.60;99.90;;;;;;5065841;28;20483;-82
2022/09/19 03:00:15;;;;;;;2.83;1.37;;;11.70;99.90;;;;;;5054435;28;20444;-83
2022/09/19 03:02:48;;;;;;;4.97;1.73;;;11.60;99.90;;;;;;5054032;28;20472;-81
2022/09/19 03:05:19;;;;;;;2.83;2.10;;;11.70;99.90;;;;;;5052963;28;20476;-82
2022/09/19 03:07:54;;;;;;;3.53;2.10;;;11.70;99.90;;;;;;5045761;28;20472;-82
2022/09/19 03:10:27;;;;;;;4.83;1.70;;;11.60;99.90;;;;;;5071574;28;20609;-80
2022/09/19 03:12:57;;;;;;;4.33;1.77;;;11.60;99.90;;;;;;5076079;28;20477;-81
2022/09/19 03:15:36;;;;;;;2.43;1.47;;;11.60;99.90;;;;;;5060345;28;20924;-83
2022/09/19 03:18:08;;;;;;;6.40;1.70;;;11.70;99.90;;;;;;5052543;28;20440;-82
2022/09/19 03:20:37;;;;;;;4.90;1.50;;;11.60;99.90;;;;;;5053505;28;20469;-83
2022/09/19 03:23:05;;;;;;;5.10;1.57;;;11.60;99.90;;;;;;5051124;28;20457;-83
2022/09/19 03:25:32;;;;;;;3.50;1.40;;;11.60;99.90;;;;;;5052420;28;20465;-83
2022/09/19 03:27:59;;;;;;;5.90;1.87;;;11.60;99.90;;;;;;5051902;28;20452;-82
2022/09/19 03:30:26;;;;;;;4.83;1.73;;;11.70;99.90;;;;;;5053122;28;20508;-84
2022/09/19 03:32:53;;;;;;;3.33;1.70;;;11.70;99.90;;;;;;5051672;28;20494;-82
2022/09/19 03:35:21;;;;;;;6.10;2.10;;;11.70;99.90;;;;;;5053872;28;20452;-81
2022/09/19 03:37:50;;;;;;;7.77;1.70;;;11.70;99.90;;;;;;5053176;28;20480;-83
2022/09/19 03:40:17;;;;;;;5.60;1.80;;;11.70;99.90;;;;;;5052593;28;20957;-81
2022/09/19 03:42:46;;;;;;;11.13;2.23;;;11.70;99.90;;;;;;5051875;28;21028;-81
2022/09/19 03:45:15;;;;;;;5.20;2.07;;;11.70;99.90;;;;;;5041061;28;20481;-80
2022/09/19 03:47:42;;;;;;;8.80;1.63;;;11.70;99.90;;;;;;5050901;28;20448;-82
2022/09/19 03:50:09;;;;;;;3.93;1.73;;;11.70;99.90;;;;;;5058335;28;20480;-82
2022/09/19 03:52:36;;;;;;;2.60;1.90;;;11.70;99.90;;;;;;5053871;28;20468;-82
2022/09/19 03:55:02;;;;;;;6.23;1.97;;;11.80;99.90;;;;;;5054139;28;20598;-82
2022/09/19 03:57:29;;;;;;;5.03;2.20;;;11.80;99.90;;;;;;5048977;28;20460;-82
2022/09/19 03:59:56;;;;;;;4.60;2.20;;;11.80;99.90;;;;;;5055748;28;20880;-83
2022/09/19 04:02:22;;;;;;;8.27;2.10;;;11.80;99.90;;;;;;5052303;28;20464;-81
2022/09/19 04:04:53;;;;;;;4.67;1.93;;;11.80;99.90;;;;;;5055458;28;20459;-81
2022/09/19 04:07:23;;;;;;;4.20;1.83;;;11.90;99.90;;;;;;5052529;28;20456;-82
2022/09/19 04:09:50;;;;;;;3.87;1.70;;;11.90;99.90;;;;;;5050770;28;21012;-82
2022/09/19 04:12:19;;;;;;;6.83;2.87;;;11.90;99.90;;;;;;5053010;28;20479;-82
2022/09/19 04:14:45;;;;;;;5.67;1.90;;;11.80;99.90;;;;;;5051469;28;20456;-81
2022/09/19 04:17:13;;;;;;;5.13;1.77;;;11.90;99.90;;;;;;5052650;28;20456;-81
2022/09/19 04:19:50;;;;;;;6.23;1.77;;;11.90;99.90;;;;;;5053598;28;20490;-83
2022/09/19 04:22:18;;;;;;;5.60;1.40;;;11.90;99.90;;;;;;5051343;28;20503;-84
2022/09/19 04:24:46;;;;;;;3.90;1.87;;;11.90;99.90;;;;;;5047449;28;20468;-83
2022/09/19 04:27:13;;;;;;;6.43;1.93;;;11.80;99.90;;;;;;5055280;28;20536;-83
2022/09/19 04:29:45;;;;;;;6.60;2.20;;;11.80;99.90;;;;;;5059886;28;20933;-82
2022/09/19 04:32:14;;;;;;;8.43;1.60;;;11.80;99.90;;;;;;5056562;28;20531;-81
2022/09/19 04:34:43;;;;;;;3.83;1.67;;;11.80;99.90;;;;;;5064551;28;20451;-81
2022/09/19 04:37:10;;;;;;;5.40;2.00;;;11.80;99.90;;;;;;5068016;28;20459;-81
2022/09/19 04:39:37;;;;;;;2.53;1.20;;;11.80;99.90;;;;;;5070432;28;20437;-81
2022/09/19 04:42:04;;;;;;;8.10;2.03;;;11.80;99.90;;;;;;5064925;28;20552;-81
2022/09/19 04:44:30;;;;;;;5.27;2.10;;;11.80;99.90;;;;;;5072019;28;20436;-80
2022/09/19 04:46:58;;;;;;;6.93;2.60;;;11.90;99.90;;;;;;5071290;28;20448;-80
2022/09/19 04:49:38;;;;;;;5.10;1.67;;;11.80;99.90;;;;;;5084054;28;20570;-83
2022/09/19 04:52:14;;;;;;;6.90;1.83;;;11.90;99.90;;;;;;5057382;28;20484;-82
2022/09/19 04:54:41;;;;;;;5.47;1.87;;;11.90;99.90;;;;;;5073661;28;20471;-83
2022/09/19 04:57:09;;;;;;;9.43;3.00;;;11.90;99.90;;;;;;5054948;28;20459;-82
2022/09/19 04:59:36;;;;;;;3.90;1.50;;;11.90;99.90;;;;;;5058052;28;20455;-82
2022/09/19 05:02:06;;;;;;;4.47;1.97;;;11.80;99.90;;;;;;5053006;28;20472;-80
2022/09/19 05:04:33;;;;;;;5.07;1.83;;;11.90;99.90;;;;;;5058263;28;20444;-82
2022/09/19 05:07:00;;;;;;;4.50;1.60;;;11.90;99.90;;;;;;5055496;28;20445;-82
2022/09/19 05:09:27;;;;;;;3.70;1.63;;;11.90;99.90;;;;;;5051386;28;20822;-80
2022/09/19 05:11:55;;;;;;;5.73;3.67;;;11.90;99.90;;;;;;5055806;28;20469;-82
2022/09/19 05:14:26;;;;;;;4.47;2.50;;;11.90;99.90;;;;;;5056396;28;20510;-81
2022/09/19 05:16:54;;;;;;;3.33;1.90;;;11.90;99.90;;;;;;5056843;28;20484;-83
2022/09/19 05:19:22;;;;;;;6.87;2.60;;;11.80;99.90;;;;;;5055450;28;20456;-83
2022/09/19 05:21:50;;;;;;;10.90;2.40;;;11.90;99.90;;;;;;5057425;28;20468;-83
2022/09/19 05:24:18;;;;;;;5.70;2.87;;;11.80;99.90;;;;;;5057954;28;20723;-83
2022/09/19 05:26:46;;;;;;;6.67;2.20;;;11.80;99.90;;;;;;5048543;28;20507;-82
2022/09/19 05:29:13;;;;;;;6.97;1.70;;;11.80;99.90;;;;;;5070016;28;20445;-82
2022/09/19 05:31:40;;;;;;;3.47;1.77;;;11.90;99.90;;;;;;5057415;28;20564;-82
2022/09/19 05:34:11;;;;;;;9.03;2.30;;;11.80;99.90;;;;;;5055900;28;20445;-82
2022/09/19 05:36:38;;;;;;;6.17;2.17;;;11.90;99.90;;;;;;5048995;28;20515;-82
2022/09/19 05:39:10;;;;;;;5.13;1.57;;;11.90;99.90;;;;;;5056547;28;20479;-81
2022/09/19 05:41:50;;;;;;;4.93;1.70;;;11.90;99.90;;;;;;5055824;28;20479;-82
2022/09/19 05:44:16;;;;;;;5.50;1.73;;;11.90;99.90;;;;;;5071580;28;20471;-82
2022/09/19 05:46:46;;;;;;;4.70;1.90;;;12.00;99.90;;;;;;5039384;28;20472;-80
2022/09/19 05:49:16;;;;;;;7.40;1.87;;;12.10;99.90;;;;;;5067195;28;20459;-79
2022/09/19 05:51:45;;;;;;;8.60;2.10;;;12.20;99.90;;;;;;5069436;28;20519;-81
2022/09/19 05:54:12;;;;;;;6.53;1.67;;;12.20;99.90;;;;;;5068180;28;20458;-82
2022/09/19 05:56:53;;;;;;;4.40;1.80;;;12.10;99.90;;;;;;5063044;28;20452;-81
2022/09/19 05:59:23;;;;;;;9.53;1.73;;;12.10;99.90;;;;;;5057610;28;20455;-83
2022/09/19 06:01:53;;;;;;;5.63;2.13;;;12.10;99.90;;;;;;5071746;28;20503;-82
2022/09/19 06:04:25;;;;;;;5.00;2.30;;;12.10;99.90;;;;;;5056261;28;20453;-83
2022/09/19 06:06:52;;;;;;;7.67;3.00;;;12.20;99.90;;;;;;5057306;28;20640;-83
2022/09/19 06:09:25;;;;;;;7.37;2.57;;;12.20;99.90;;;;;;5057980;28;20527;-83
2022/09/19 06:11:53;;;;;;;11.53;2.80;;;12.30;99.90;;;;;;5078133;28;20512;-83
2022/09/19 06:14:22;;;;;;;7.03;2.60;;;12.40;99.90;;;;;;5056111;28;20968;-81
2022/09/19 06:16:54;;;;;;;6.47;2.80;;;12.40;99.90;;;;;;5056353;28;20930;-81
2022/09/19 06:19:23;;;;;;;5.33;2.30;;;12.70;99.90;;;;;;5054339;28;20445;-82
2022/09/19 06:21:51;;;;;;;6.37;2.03;;;13.00;99.90;;;;;;5049716;28;20529;-83
2022/09/19 06:24:17;;;;;;;6.60;4.03;;;12.90;99.90;;;;;;5054499;28;20468;-82
2022/09/19 06:26:44;;;;;;;3.77;1.80;;;12.80;99.90;;;;;;5055189;28;20530;-82
2022/09/19 06:29:10;;;;;;;4.70;1.83;;;12.80;99.90;;;;;;5055574;28;20969;-83
2022/09/19 06:31:37;;;;;;;10.40;2.43;;;12.70;99.90;;;;;;5048246;28;20499;-81
2022/09/19 06:34:04;;;;;;;7.83;2.20;;;12.60;99.90;;;;;;5058198;28;20448;-80
2022/09/19 06:36:31;;;;;;;3.63;1.40;;;12.60;99.90;;;;;;5060638;28;20471;-80
2022/09/19 06:38:57;;;;;;;9.37;2.00;;;12.70;99.90;;;;;;5059355;28;20486;-82
2022/09/19 06:41:24;;;;;;;4.63;2.00;;;12.70;99.90;;;;;;5062321;28;20493;-82
2022/09/19 06:43:51;;;;;;;3.83;1.70;;;12.70;99.90;;;;;;5054828;28;20506;-82
2022/09/19 06:46:19;;;;;;;6.97;1.87;;;12.80;99.90;;;;;;5055083;28;20444;-81
2022/09/19 06:48:48;;;;;;;6.87;2.20;;;12.80;99.90;;;;;;5071401;28;20468;-83
2022/09/19 06:51:15;;;;;;;4.40;1.57;;;12.90;99.90;;;;;;5053847;28;20480;-82
2022/09/19 06:53:41;;;;;;;5.67;1.70;;;13.00;99.90;;;;;;5055618;28;20444;-82
2022/09/19 06:56:08;;;;;;;4.67;2.00;;;13.00;99.90;;;;;;5082302;28;20510;-81
2022/09/19 06:58:35;;;;;;;5.13;2.00;;;13.10;99.90;;;;;;5056609;28;20467;-81
2022/09/19 07:01:01;;;;;;;7.70;2.50;;;13.10;99.90;;;;;;5070515;28;20468;-83
2022/09/19 07:03:28;;;;;;;6.40;2.00;;;13.10;99.90;;;;;;5056895;28;20448;-82
2022/09/19 07:05:59;;;;;;;6.00;3.20;;;13.10;99.90;;;;;;5059749;28;20443;-83
2022/09/19 07:08:26;;;;;;;9.23;2.43;;;13.10;99.90;;;;;;5050630;28;20506;-84
2022/09/19 07:10:55;;;;;;;4.03;1.60;;;13.20;99.90;;;;;;5054050;28;20484;-83
2022/09/19 07:13:21;;;;;;;4.00;2.03;;;13.20;99.90;;;;;;5055304;28;20436;-83
2022/09/19 07:15:48;;;;;;;3.80;1.37;;;13.20;99.90;;;;;;5054043;28;20473;-82
2022/09/19 07:18:15;;;;;;;4.10;1.53;;;13.40;99.90;;;;;;5056299;28;20482;-81
2022/09/19 07:20:42;;;;;;;6.47;2.00;;;13.50;99.90;;;;;;5058280;28;20506;-82
2022/09/19 07:23:14;;;;;;;4.20;1.60;;;13.60;99.90;;;;;;5055779;28;20448;-82
2022/09/19 07:25:43;;;;;;;4.80;1.83;;;13.70;99.90;;;;;;5049500;28;20869;-83
2022/09/19 07:28:12;;;;;;;5.07;2.57;;;13.60;99.90;;;;;;5049917;28;20448;-82
2022/09/19 07:30:43;;;;;;;8.73;1.60;;;13.70;99.90;;;;;;5072820;28;20523;-83
2022/09/19 07:33:12;;;;;;;6.97;1.50;;;13.80;99.90;;;;;;5058153;28;20452;-83
2022/09/19 07:35:42;;;;;;;5.87;1.90;;;13.90;99.90;;;;;;5052972;28;20458;-83
2022/09/19 07:38:13;;;;;;;5.50;2.07;;;14.30;99.90;;;;;;5048707;28;20444;-84
2022/09/19 07:40:42;;;;;;;6.67;2.17;;;14.40;99.90;;;;;;5047860;28;20510;-83
2022/09/19 07:43:13;;;;;;;11.70;2.73;;;14.30;99.90;;;;;;5053376;28;20486;-82
2022/09/19 07:45:47;;;;;;;5.03;1.90;;;14.10;99.90;;;;;;5072869;28;20527;-83
2022/09/19 07:48:15;;;;;;;5.17;1.60;;;13.90;99.90;;;;;;5055385;28;20432;-83
2022/09/19 07:50:43;;;;;;;3.80;2.00;;;13.80;99.90;;;;;;5055359;28;20480;-82
2022/09/19 07:53:19;;;;;;;3.80;2.20;;;13.80;99.90;;;;;;5053744;28;20535;-84
2022/09/19 07:55:51;;;;;;;9.37;2.13;;;15.80;99.90;;;;;;5044056;28;20448;-83
2022/09/19 07:58:20;;;;;;;4.73;1.87;;;16.60;98.60;;;;;;5042462;28;20531;-83
2022/09/19 08:00:48;;;;;;;7.00;1.70;;;16.10;97.70;;;;;;5057733;28;20538;-83
2022/09/19 08:03:16;;;;;;;3.23;1.30;;;15.70;98.30;;;;;;5058497;28;21007;-83
2022/09/19 08:05:45;;;;;;;4.80;1.63;;;15.40;99.00;;;;;;5053644;28;20484;-82
2022/09/19 08:08:14;;;;;;;4.77;1.80;;;15.10;99.80;;;;;;5059751;28;20445;-83
2022/09/19 08:10:44;;;;;;;8.13;1.97;;;15.00;99.90;;;;;;5060142;28;20864;-83
2022/09/19 08:13:15;;;;;;;10.30;2.07;;;14.90;99.90;;;;;;5064193;28;20971;-83
2022/09/19 08:15:44;;;;;;;4.30;1.87;;;14.70;99.90;;;;;;5058364;28;20554;-82
2022/09/19 08:18:15;;;;;;;7.07;1.93;;;14.50;99.90;;;;;;5061970;28;20451;-82
2022/09/19 08:20:43;;;;;;;9.53;2.60;;;14.30;99.90;;;;;;5058244;28;20481;-82
2022/09/19 08:23:13;;;;;;;5.70;1.93;;;14.20;99.90;;;;;;5061172;28;20450;-82
2022/09/19 08:25:46;;;;;;;7.00;2.13;;;14.10;99.90;;;;;;5062672;28;20448;-82
2022/09/19 08:28:14;;;;;;;4.30;1.73;;;14.20;99.90;;;;;;5061865;28;20448;-83
2022/09/19 08:30:42;;;;;;;5.50;1.80;;;14.30;99.90;;;;;;5060169;28;20514;-83
2022/09/19 08:33:09;;;;;;;3.80;1.60;;;14.40;99.90;;;;;;5059491;28;20437;-82
2022/09/19 08:35:41;;;;;;;5.73;1.70;;;14.50;99.90;;;;;;5059415;28;20458;-84
2022/09/19 08:38:10;;;;;;;3.67;1.63;;;14.80;99.90;;;;;;5052868;28;20475;-83
2022/09/19 08:40:40;;;;;;;14.40;2.67;;;14.80;99.90;;;;;;5057670;28;20460;-79
2022/09/19 08:43:18;;;;;;;6.23;2.60;;;14.80;99.90;;;;;;5051981;28;20444;-82
2022/09/19 08:46:10;;;;;;;4.93;2.30;;;14.60;99.90;;;;;;5056827;28;20583;-82
2022/09/19 08:48:54;;;;;;;3.40;1.70;;;14.50;99.90;;;;;;5072376;28;20445;-84
2022/09/19 08:51:56;;;;;;;6.27;2.83;;;14.50;99.90;;;;;;5047163;28;20475;-82
2022/09/19 08:54:32;;;;;;;3.63;1.50;;;14.50;99.90;;;;;;5059139;28;20489;-83
2022/09/19 08:57:00;;;;;;;6.57;2.27;;;14.50;99.90;;;;;;5052976;28;20456;-83
2022/09/19 08:59:37;;;;;;;5.43;1.57;;;14.50;99.90;;;;;;5075028;28;20480;-83
2022/09/19 09:02:09;;;;;;;4.70;2.30;;;14.60;99.90;;;;;;5061803;28;20479;-84
2022/09/19 09:04:49;;;;;;;2.40;2.00;;;14.90;99.90;;;;;;5069081;28;20440;-83
2022/09/19 09:08:08;;;;;;;6.83;1.93;;;14.90;99.90;;;;;;5058147;28;20510;-83
2022/09/19 09:10:55;;;;;;;5.27;2.23;;;14.90;99.90;;;;;;5056087;28;20472;-81
2022/09/19 09:13:56;;;;;;;4.60;1.70;;;15.20;99.90;;;;;;5059897;28;20498;-81
2022/09/19 09:16:39;;;;;;;7.17;1.83;;;15.30;99.90;;;;;;5049880;28;20452;-82
2022/09/19 09:19:40;;;;;;;2.80;1.70;;;15.40;99.90;;;;;;5065326;28;20447;-81
2022/09/19 09:22:25;;;;;;;6.43;1.60;;;15.50;99.90;;;;;;5017986;28;20445;-80
2022/09/19 09:25:13;;;;;;;3.70;1.73;;;15.50;99.90;;;;;;5070754;28;20444;-81
2022/09/19 09:27:54;;;;;;;8.50;1.87;;;15.60;99.90;;;;;;5063814;28;20449;-82
2022/09/19 09:30:21;;;;;;;5.57;1.60;;;15.90;99.90;;;;;;5065012;28;20417;-83
2022/09/19 09:32:56;;;;;;;8.07;1.50;;;15.90;99.90;;;;;;5064977;28;20468;-83
2022/09/19 09:35:34;;;;;;;9.60;2.40;;;15.90;99.90;;;;;;5077452;28;20428;-81
2022/09/19 09:38:30;;;;;;;5.50;2.33;;;15.90;99.90;;;;;;5064218;28;20440;-82
2022/09/19 09:44:13;;;;;;;10.30;1.87;;;15.80;99.60;;;;;;5057368;28;21028;-84
2022/09/19 09:46:49;;;;;;;2.70;1.57;;;16.00;99.70;;;;;;5071912;28;20436;-83
2022/09/19 09:49:18;;;;;;;5.67;1.40;;;16.10;99.90;;;;;;5058644;28;20443;-82
2022/09/19 09:51:53;;;;;;;5.53;1.77;;;16.30;99.50;;;;;;5067450;28;20488;-80
2022/09/19 09:57:29;;;;;;;7.33;2.60;;;16.40;98.70;;;;;;5063110;28;20475;-83
2022/09/19 10:05:48;;;;;;;2.90;1.70;;;16.30;99.30;;;;;;5062571;28;20493;-82
2022/09/19 10:08:21;;;;;;;3.07;1.73;;;16.40;98.90;;;;;;5074577;28;20460;-82
2022/09/19 10:10:53;;;;;;;4.80;1.97;;;16.80;98.70;;;;;;5065385;28;20839;-82
2022/09/19 10:13:27;;;;;;;4.77;1.80;;;16.80;97.40;;;;;;5066034;28;20460;-80
2022/09/19 10:16:01;;;;;;;4.20;2.03;;;16.70;97.40;;;;;;5061863;28;20471;-82
2022/09/19 10:18:51;;;;;;;6.73;2.37;;;17.00;97.60;;;;;;5064728;28;20460;-80
2022/09/19 10:21:18;;;;;;;5.20;1.50;;;17.40;97.10;;;;;;5066555;28;20460;-82
2022/09/19 10:23:48;;;;;;;4.67;1.83;;;17.90;95.50;;;;;;5064793;28;20466;-82
2022/09/19 10:26:19;;;;;;;4.13;1.80;;;18.10;95.20;;;;;;5079546;28;20461;-83
2022/09/19 10:28:53;;;;;;;3.57;1.37;;;18.00;94.60;;;;;;5067834;28;20575;-83
2022/09/19 10:31:35;;;;;;;3.90;1.40;;;17.80;94.30;;;;;;5056252;28;20571;-83
2022/09/19 10:34:05;;;;;;;6.07;1.80;;;17.50;94.80;;;;;;5072161;28;20452;-84
2022/09/19 10:36:43;;;;;;;2.30;1.53;;;17.40;94.70;;;;;;5049501;28;20524;-84
2022/09/19 10:39:14;;;;;;;2.97;2.30;;;17.50;94.90;;;;;;5055218;28;20471;-84
2022/09/19 10:41:42;;;;;;;6.77;2.17;;;17.80;94.80;;;;;;5050488;28;20499;-81
2022/09/19 10:44:22;;;;;;;8.47;2.10;;;18.00;94.50;;;;;;5058626;28;20448;-83
2022/09/19 10:46:58;;;;;;;3.70;1.73;;;18.20;94.00;;;;;;5065100;28;20503;-83
2022/09/19 10:49:28;;;;;;;4.90;1.67;;;18.50;93.40;;;;;;5064234;28;20499;-81
2022/09/19 10:51:59;;;;;;;3.47;1.60;;;18.60;92.70;;;;;;5067004;28;20473;-82
2022/09/19 10:54:31;;;;;;;3.60;2.00;;;18.60;92.70;;;;;;5061637;28;20463;-81
2022/09/19 10:56:59;;;;;;;8.17;2.13;;;18.90;92.50;;;;;;5057286;28;20502;-83
2022/09/19 10:59:36;;;;;;;4.10;1.60;;;19.30;92.10;;;;;;5084726;28;20452;-84
2022/09/19 11:02:08;;;;;;;6.40;2.57;;;19.60;91.20;;;;;;5072955;28;20465;-82
2022/09/19 11:04:37;;;;;;;6.57;1.90;;;19.30;90.40;;;;;;5055657;28;20467;-82
2022/09/19 11:07:16;;;;;;;5.30;1.60;;;19.00;90.80;;;;;;5073031;28;20444;-82
2022/09/19 11:09:45;;;;;;;2.27;1.37;;;19.10;90.70;;;;;;5058578;28;20447;-82
2022/09/19 11:12:16;;;;;;;4.03;1.50;;;19.40;90.50;;;;;;5060008;28;20518;-81
2022/09/19 11:14:48;;;;;;;6.60;1.67;;;19.80;89.20;;;;;;5053283;28;20864;-81
2022/09/19 11:17:34;;;;;;;3.67;1.23;;;20.10;88.90;;;;;;5053109;28;20486;-83
2022/09/19 11:20:16;;;;;;;3.93;1.50;;;20.30;83.90;;;;;;5053188;28;20941;-83
2022/09/19 11:23:13;;;;;;;3.50;1.17;;;20.00;84.00;;;;;;5052873;28;20448;-83
2022/09/19 11:26:00;;;;;;;3.40;1.20;;;19.90;84.80;;;;;;5066333;28;20539;-83
2022/09/19 11:28:43;;;;;;;2.73;1.50;;;20.00;85.50;;;;;;5045331;28;20448;-82
2022/09/19 11:31:33;;;;;;;3.93;1.13;;;20.30;84.80;;;;;;5057240;28;20480;-83
2022/09/19 11:34:46;;;;;;;2.80;1.10;;;20.40;83.80;;;;;;5057686;28;20441;-83
2022/09/19 11:37:41;;;;;;;2.80;1.07;;;20.20;89.10;;;;;;5054781;28;20441;-84
2022/09/19 11:40:33;;;;;;;4.07;1.40;;;20.30;90.40;;;;;;5063509;28;20444;-84
2022/09/19 11:43:30;;;;;;;3.07;1.33;;;20.70;90.00;;;;;;5052383;28;20467;-84
2022/09/19 11:46:25;;;;;;;2.87;1.30;;;21.10;88.50;;;;;;5071415;28;20506;-83
2022/09/19 11:49:10;;;;;;;6.83;1.57;;;21.00;86.50;;;;;;5055162;28;20498;-82
2022/09/19 11:52:17;;;;;;;5.00;1.53;;;20.60;85.40;;;;;;5050928;28;20571;-81
2022/09/19 11:54:58;;;;;;;2.10;1.00;;;20.60;86.10;;;;;;5069416;28;20444;-83
2022/09/19 11:57:57;;;;;;;3.03;1.23;;;20.20;85.60;;;;;;5075553;28;20521;-83
2022/09/19 12:00:26;;;;;;;6.57;1.03;;;20.00;87.10;;;;;;5045576;28;20529;-83
2022/09/19 12:03:30;;;;;;;2.77;1.30;;;19.70;87.40;;;;;;5057356;28;20458;-81
2022/09/19 12:06:14;;;;;;;2.60;1.10;;;19.50;86.80;;;;;;5058986;28;20490;-83
2022/09/19 12:09:03;;;;;;;2.67;1.17;;;19.40;88.30;;;;;;5072122;28;20486;-81
2022/09/19 12:11:58;;;;;;;2.63;1.20;;;19.40;86.00;;;;;;5067343;28;21064;-81
2022/09/19 12:14:29;;;;;;;4.57;1.50;;;19.40;83.50;;;;;;5059220;28;20517;-82
2022/09/19 12:17:02;;;;;;;3.10;1.33;;;19.70;84.10;;;;;;5072755;28;20535;-81
2022/09/19 12:19:45;;;;;;;7.40;3.20;;;20.40;80.90;;;;;;5054260;28;20480;-82
2022/09/19 12:22:40;;;;;;;2.97;1.03;;;20.50;78.10;;;;;;5058382;28;20506;-81
2022/09/19 12:25:20;;;;;;;2.40;1.00;;;20.50;76.90;;;;;;5051866;28;20552;-83
2022/09/19 12:27:50;;;;;;;4.53;1.63;;;21.00;76.30;;;;;;5065785;28;20478;-83
2022/09/19 12:30:19;;;;;;;4.00;2.70;;;21.30;73.40;;;;;;5074499;28;20436;-83
2022/09/19 12:33:09;;;;;;;2.97;1.27;;;20.80;70.80;;;;;;5076835;28;20480;-82
2022/09/19 12:35:45;;;;;;;2.20;1.23;;;20.50;71.50;;;;;;5064654;28;20502;-80
2022/09/19 12:38:40;;;;;;;6.10;1.20;;;20.10;71.60;;;;;;5077066;28;20458;-81
2022/09/19 12:41:14;;;;;;;2.40;1.20;;;20.10;70.20;;;;;;5068902;28;20825;-79
2022/09/19 12:43:54;;;;;;;2.67;1.20;;;20.10;69.90;;;;;;5056842;28;20482;-83
2022/09/19 12:46:34;;;;;;;3.70;1.73;;;19.80;70.40;;;;;;5059644;28;20437;-84
2022/09/19 12:49:21;;;;;;;3.07;1.10;;;19.70;71.70;;;;;;5054384;28;20490;-84
2022/09/19 12:52:04;;;;;;;1.60;0.97;;;19.60;73.40;;;;;;5063897;28;20495;-84
2022/09/19 12:55:03;;;;;;;1.27;0.60;;;19.40;78.70;;;;;;5059544;28;20440;-83
2022/09/19 12:57:48;;;;;;;1.53;0.63;;;18.70;84.20;;;;;;5056998;28;20485;-84
2022/09/19 13:00:15;;;;;;;2.93;1.20;;;18.60;88.30;;;;;;5058859;28;20425;-84
2022/09/19 13:03:09;;;;;;;2.03;1.00;;;18.10;90.90;;;;;;5058379;28;20479;-82
2022/09/19 13:05:39;;;;;;;2.37;0.70;;;17.80;92.80;;;;;;5050893;28;20510;-82
2022/09/19 13:08:14;;;;;;;1.30;1.20;;;17.60;93.70;;;;;;5057085;28;20444;-82
2022/09/19 13:10:59;;;;;;;0.80;0.63;;;17.60;93.90;;;;;;5059121;28;20559;-81
2022/09/19 13:13:51;;;;;;;1.70;0.80;;;17.40;94.30;;;;;;5064930;28;20492;-80
2022/09/19 13:16:24;;;;;;;2.63;0.90;;;17.20;95.40;;;;;;5062430;28;20476;-81
2022/09/19 13:24:37;;;;;;;2.70;0.93;;;16.80;96.60;;;;;;5057819;28;20452;-83
2022/09/19 13:27:05;;;;;;;1.10;0.80;;;16.80;96.00;;;;;;5056370;28;20521;-82
2022/09/19 13:29:32;;;;;;;0.90;0.80;;;16.80;95.30;;;;;;5055990;28;20444;-81
2022/09/19 13:32:01;;;;;;;1.10;0.80;;;16.80;95.40;;;;;;5056265;28;20484;-80
2022/09/19 13:34:42;;;;;;;3.90;0.90;;;16.70;95.30;;;;;;5059023;28;20444;-82
2022/09/19 13:37:32;;;;;;;1.77;0.60;;;16.60;95.20;;;;;;5055759;28;20436;-81
2022/09/19 13:40:27;;;;;;;2.97;1.23;;;16.70;95.20;;;;;;5056946;28;21079;-82
2022/09/19 13:43:04;;;;;;;1.40;1.20;;;16.70;95.10;;;;;;5069367;28;20485;-82